createdAt,value
2023-01-12T00:02:21.225Z,2.65
2023-01-12T00:04:48.323Z,2.20
2023-01-12T00:07:15.406Z,2.08
2023-01-12T00:09:42.478Z,2.20
2023-01-12T00:12:11.578Z,2.83
2023-01-12T00:14:39.162Z,2.33
2023-01-12T00:17:07.304Z,2.00
2023-01-12T00:19:34.392Z,1.90
2023-01-12T00:22:01.974Z,2.63
2023-01-12T00:24:31.819Z,2.45
2023-01-12T00:27:00.799Z,2.35
2023-01-12T00:29:28.449Z,2.15
2023-01-12T00:31:57.654Z,2.05
2023-01-12T00:34:26.709Z,2.13
2023-01-12T00:36:55.343Z,2.28
2023-01-12T00:39:22.661Z,2.38
2023-01-12T00:41:49.716Z,1.88
2023-01-12T00:44:16.988Z,2.00
2023-01-12T00:46:44.178Z,2.17
2023-01-12T00:49:11.286Z,2.40
2023-01-12T00:51:38.321Z,2.22
2023-01-12T00:54:05.527Z,2.13
2023-01-12T00:56:32.690Z,2.40
2023-01-12T00:58:59.851Z,2.33
2023-01-12T01:01:27.380Z,2.38
2023-01-12T01:03:55.049Z,2.35
2023-01-12T01:06:22.444Z,1.90
2023-01-12T01:08:49.669Z,2.65
2023-01-12T01:11:16.921Z,2.15
2023-01-12T01:13:44.672Z,2.20
2023-01-12T01:16:14.057Z,3.03
2023-01-12T01:18:42.089Z,2.13
2023-01-12T01:21:11.359Z,2.53
2023-01-12T01:23:39.689Z,3.15
2023-01-12T01:26:10.130Z,2.40
2023-01-12T01:28:37.214Z,2.35
2023-01-12T01:31:11.530Z,1.95
2023-01-12T01:33:40.146Z,2.95
2023-01-12T01:36:08.139Z,2.00
2023-01-12T01:38:36.017Z,2.40
2023-01-12T01:41:04.586Z,2.92
2023-01-12T01:43:50.154Z,2.25
2023-01-12T01:46:26.000Z,1.90
2023-01-12T01:48:53.614Z,2.03
2023-01-12T01:51:21.369Z,2.38
2023-01-12T01:53:50.157Z,2.15
2023-01-12T01:56:26.955Z,2.20
2023-01-12T01:59:07.965Z,1.88
2023-01-12T02:01:36.098Z,2.20
2023-01-12T02:04:04.116Z,2.08
2023-01-12T02:06:31.627Z,2.13
2023-01-12T02:09:08.602Z,2.30
2023-01-12T02:11:35.759Z,1.85
2023-01-12T02:14:03.165Z,2.50
2023-01-12T02:16:33.945Z,2.45
2023-01-12T02:19:41.179Z,2.47
2023-01-12T02:22:34.310Z,2.40
2023-01-12T02:25:17.652Z,2.03
2023-01-12T02:28:01.940Z,2.20
2023-01-12T02:31:03.225Z,1.98
2023-01-12T02:33:44.714Z,2.37
2023-01-12T02:36:31.757Z,2.20
2023-01-12T02:39:18.459Z,2.03
2023-01-12T02:42:13.509Z,2.25
2023-01-12T02:44:53.658Z,1.98
2023-01-12T02:47:37.853Z,2.15
2023-01-12T02:50:09.228Z,2.03
2023-01-12T02:52:36.787Z,1.98
2023-01-12T02:55:05.339Z,2.55
2023-01-12T02:57:34.718Z,1.90
2023-01-12T03:00:03.491Z,2.47
2023-01-12T03:02:31.173Z,2.15
2023-01-12T03:04:58.633Z,1.60
2023-01-12T03:07:37.670Z,1.80
2023-01-12T03:10:36.384Z,1.92
2023-01-12T03:13:08.308Z,2.17
2023-01-12T03:15:40.447Z,2.22
2023-01-12T03:18:33.694Z,2.00
2023-01-12T03:21:08.857Z,1.83
2023-01-12T03:23:44.778Z,1.58
2023-01-12T03:26:15.551Z,2.20
2023-01-12T03:28:48.080Z,1.88
2023-01-12T03:31:15.119Z,1.83
2023-01-12T03:33:43.992Z,2.92
2023-01-12T03:36:45.512Z,2.33
2023-01-12T03:39:54.631Z,2.38
2023-01-12T03:43:07.689Z,2.70
2023-01-12T03:45:59.626Z,3.72
2023-01-12T03:48:38.271Z,2.15
2023-01-12T03:51:13.928Z,2.20
2023-01-12T03:53:43.065Z,2.13
2023-01-12T03:56:12.379Z,1.80
2023-01-12T03:58:40.600Z,1.75
2023-01-12T04:01:08.017Z,2.58
2023-01-12T04:03:35.412Z,2.22
2023-01-12T04:06:02.997Z,2.03
2023-01-12T04:08:30.044Z,2.40
2023-01-12T04:10:57.183Z,3.22
2023-01-12T04:13:24.469Z,2.60
2023-01-12T04:15:51.495Z,2.35
2023-01-12T04:18:18.458Z,2.50
2023-01-12T04:20:47.008Z,2.80
2023-01-12T04:23:14.465Z,2.75
2023-01-12T04:25:41.441Z,2.13
2023-01-12T04:28:08.514Z,2.63
2023-01-12T04:30:35.569Z,2.58
2023-01-12T04:33:07.261Z,1.95
2023-01-12T04:35:34.291Z,2.60
2023-01-12T04:38:05.848Z,2.05
2023-01-12T04:40:32.963Z,2.47
2023-01-12T04:42:59.993Z,2.45
2023-01-12T04:45:38.971Z,2.20
2023-01-12T04:48:08.885Z,2.30
2023-01-12T04:50:36.427Z,2.17
2023-01-12T04:53:06.289Z,2.28
2023-01-12T04:55:35.977Z,2.20
2023-01-12T04:58:03.564Z,2.63
2023-01-12T05:00:30.819Z,2.60
2023-01-12T05:02:59.499Z,2.33
2023-01-12T05:05:27.186Z,2.35
2023-01-12T05:07:54.653Z,2.58
2023-01-12T05:10:21.701Z,2.30
2023-01-12T05:12:48.718Z,1.67
2023-01-12T05:15:15.833Z,2.00
2023-01-12T05:17:42.880Z,2.80
2023-01-12T05:20:10.758Z,2.72
2023-01-12T05:22:37.884Z,2.85
2023-01-12T05:25:05.401Z,1.70
2023-01-12T05:27:32.495Z,2.53
2023-01-12T05:29:59.475Z,2.15
2023-01-12T05:32:26.816Z,2.28
2023-01-12T05:34:53.862Z,2.10
2023-01-12T05:37:20.878Z,2.67
2023-01-12T05:39:47.961Z,2.00
2023-01-12T05:42:15.259Z,3.00
2023-01-12T05:44:42.334Z,2.00
2023-01-12T05:47:09.386Z,1.90
2023-01-12T05:49:36.473Z,1.95
2023-01-12T05:52:03.616Z,1.83
2023-01-12T05:54:30.755Z,1.67
2023-01-12T05:56:57.870Z,2.75
2023-01-12T05:59:24.929Z,2.63
2023-01-12T06:01:52.038Z,2.60
2023-01-12T06:04:19.141Z,2.13
2023-01-12T06:06:46.167Z,2.50
2023-01-12T06:09:13.189Z,2.63
2023-01-12T06:11:40.150Z,2.38
2023-01-12T06:14:08.625Z,2.58
2023-01-12T06:16:54.369Z,3.45
2023-01-12T06:19:21.452Z,1.60
2023-01-12T06:21:48.462Z,2.13
2023-01-12T06:24:15.581Z,2.05
2023-01-12T06:26:42.608Z,2.13
2023-01-12T06:29:09.619Z,1.83
2023-01-12T06:31:36.644Z,2.30
2023-01-12T06:34:03.699Z,2.10
2023-01-12T06:36:30.703Z,2.92
2023-01-12T06:38:57.745Z,2.05
2023-01-12T06:41:24.797Z,2.17
2023-01-12T06:43:51.827Z,1.83
2023-01-12T06:46:18.904Z,2.10
2023-01-12T06:48:46.193Z,1.95
2023-01-12T06:51:13.312Z,2.58
2023-01-12T06:53:40.382Z,2.28
2023-01-12T06:56:07.598Z,2.00
2023-01-12T06:58:34.619Z,2.20
2023-01-12T07:01:03.302Z,2.15
2023-01-12T07:03:30.590Z,2.30
2023-01-12T07:05:59.180Z,1.50
2023-01-12T07:08:26.987Z,1.80
2023-01-12T07:10:54.343Z,2.05
2023-01-12T07:13:21.479Z,2.55
2023-01-12T07:15:48.547Z,1.77
2023-01-12T07:18:15.630Z,2.45
2023-01-12T07:20:42.651Z,2.55
2023-01-12T07:23:09.745Z,2.00
2023-01-12T07:25:36.912Z,2.83
2023-01-12T07:28:04.082Z,2.13
2023-01-12T07:30:31.195Z,2.65
2023-01-12T07:33:17.711Z,2.10
2023-01-12T07:35:45.640Z,2.95
2023-01-12T07:38:12.731Z,2.00
2023-01-12T07:40:39.832Z,2.72
2023-01-12T07:43:08.848Z,2.63
2023-01-12T07:45:36.581Z,2.47
2023-01-12T07:48:03.826Z,2.17
2023-01-12T07:50:30.996Z,2.83
2023-01-12T07:53:01.126Z,2.00
2023-01-12T07:55:29.768Z,2.25
2023-01-12T07:57:59.108Z,2.22
2023-01-12T08:00:27.105Z,2.08
2023-01-12T08:02:55.483Z,2.38
2023-01-12T08:05:22.978Z,2.40
2023-01-12T08:07:50.038Z,2.10
2023-01-12T08:10:17.203Z,2.20
2023-01-12T08:12:44.308Z,2.58
2023-01-12T08:15:13.646Z,1.95
2023-01-12T08:17:48.756Z,1.90
2023-01-12T08:20:22.982Z,2.08
2023-01-12T08:22:54.266Z,2.42
2023-01-12T08:25:25.221Z,1.90
2023-01-12T08:27:56.040Z,2.00
2023-01-12T08:30:24.980Z,2.22
2023-01-12T08:32:52.143Z,2.47
2023-01-12T08:35:23.399Z,2.63
2023-01-12T08:37:50.821Z,2.40
2023-01-12T08:40:18.203Z,2.03
2023-01-12T08:42:45.210Z,2.22
2023-01-12T08:45:12.319Z,1.83
2023-01-12T08:47:39.408Z,2.30
2023-01-12T08:50:06.830Z,2.33
2023-01-12T08:52:35.343Z,2.08
2023-01-12T08:55:02.793Z,2.10
2023-01-12T08:57:30.450Z,1.65
2023-01-12T08:59:57.495Z,1.33
2023-01-12T09:02:25.239Z,2.33
2023-01-12T09:04:52.670Z,2.53
2023-01-12T09:07:19.710Z,2.17
2023-01-12T09:09:46.729Z,2.20
2023-01-12T09:12:13.927Z,3.53
2023-01-12T09:14:41.102Z,2.13
2023-01-12T09:17:08.613Z,2.08
2023-01-12T09:19:35.667Z,1.48
2023-01-12T09:22:02.743Z,3.30
2023-01-12T09:24:29.783Z,1.58
2023-01-12T09:26:56.858Z,1.85
2023-01-12T09:29:23.953Z,1.83
2023-01-12T09:31:51.118Z,2.08
2023-01-12T09:34:18.261Z,2.50
2023-01-12T09:36:45.481Z,1.60
2023-01-12T09:39:26.830Z,1.65
2023-01-12T09:41:56.280Z,2.10
2023-01-12T09:44:29.364Z,1.45
2023-01-12T09:46:58.400Z,1.95
2023-01-12T09:49:31.724Z,1.50
2023-01-12T09:52:02.859Z,1.35
2023-01-12T09:54:32.331Z,1.63
2023-01-12T09:57:20.704Z,1.50
2023-01-12T10:00:04.603Z,1.50
2023-01-12T10:02:44.096Z,1.33
2023-01-12T10:05:31.495Z,1.30
2023-01-12T10:08:09.833Z,2.40
2023-01-12T10:10:37.044Z,1.85
2023-01-12T10:13:08.309Z,1.33
2023-01-12T10:15:48.479Z,1.35
2023-01-12T10:18:54.655Z,1.00
2023-01-12T10:21:23.404Z,1.70
2023-01-12T10:23:53.537Z,1.42
2023-01-12T10:26:20.529Z,1.55
2023-01-12T10:28:49.631Z,1.27
2023-01-12T10:31:22.015Z,1.65
2023-01-12T10:34:06.481Z,1.35
2023-01-12T10:36:41.803Z,2.08
2023-01-12T10:39:25.565Z,1.27
2023-01-12T10:42:10.102Z,1.38
2023-01-12T10:44:37.230Z,1.75
2023-01-12T10:47:10.730Z,2.22
2023-01-12T10:49:38.141Z,1.25
2023-01-12T10:52:31.403Z,1.90
2023-01-12T10:54:59.063Z,2.30
2023-01-12T10:57:26.549Z,4.60
2023-01-12T10:59:58.161Z,1.98
2023-01-12T11:02:26.836Z,2.78
2023-01-12T11:04:54.725Z,2.10
2023-01-12T11:07:24.393Z,5.40
2023-01-12T11:09:52.191Z,3.15
2023-01-12T11:12:24.483Z,2.25
2023-01-12T11:15:17.920Z,2.20
2023-01-12T11:17:50.604Z,2.83
2023-01-12T11:20:27.326Z,1.95
2023-01-12T11:22:58.830Z,3.40
2023-01-12T11:25:28.850Z,1.52
2023-01-12T11:28:06.792Z,1.65
2023-01-12T11:30:42.073Z,1.40
2023-01-12T11:33:22.076Z,1.40
2023-01-12T11:35:54.192Z,1.42
2023-01-12T11:38:27.693Z,1.42
2023-01-12T11:40:58.165Z,1.50
2023-01-12T11:43:35.439Z,1.20
2023-01-12T11:46:40.825Z,1.15
2023-01-12T11:49:18.201Z,1.00
2023-01-12T11:51:49.446Z,1.15
2023-01-12T11:54:18.433Z,0.73
2023-01-12T11:56:54.266Z,1.13
2023-01-12T11:59:27.251Z,1.00
2023-01-12T12:02:12.776Z,1.00
2023-01-12T12:04:51.958Z,0.93
2023-01-12T12:07:40.856Z,0.93
2023-01-12T12:10:33.638Z,1.38
2023-01-12T12:13:18.832Z,1.38
2023-01-12T12:16:18.170Z,0.90
2023-01-12T12:19:03.842Z,1.02
2023-01-12T12:21:39.923Z,0.90
2023-01-12T12:24:25.811Z,0.93
2023-01-12T12:26:55.685Z,1.10
2023-01-12T12:30:01.721Z,1.10
2023-01-12T12:32:40.942Z,1.25
2023-01-12T12:35:11.026Z,0.77
2023-01-12T12:37:41.437Z,1.00
2023-01-12T12:40:17.841Z,0.80
2023-01-12T12:42:59.785Z,0.80
2023-01-12T12:49:02.801Z,0.95
2023-01-12T12:51:31.655Z,1.00
2023-01-12T12:53:59.795Z,1.38
2023-01-12T12:56:28.423Z,0.88
2023-01-12T12:58:57.755Z,2.00
2023-01-12T13:01:24.960Z,1.15
2023-01-12T13:04:03.315Z,1.13
2023-01-12T13:06:31.691Z,0.60
2023-01-12T13:08:59.909Z,0.38
2023-01-12T13:11:47.805Z,1.63
2023-01-12T13:14:31.233Z,0.60
2023-01-12T13:17:18.539Z,0.98
2023-01-12T13:19:48.332Z,1.30
2023-01-12T13:22:27.716Z,0.50
2023-01-12T13:25:22.648Z,0.47
2023-01-12T13:28:11.362Z,1.08
2023-01-12T13:30:49.995Z,0.60
2023-01-12T13:33:22.008Z,0.60
2023-01-12T13:35:49.098Z,0.52
2023-01-12T13:38:21.907Z,0.40
2023-01-12T13:40:55.890Z,0.40
2023-01-12T13:43:29.029Z,0.60
2023-01-12T13:46:14.712Z,0.60
2023-01-12T13:48:50.777Z,0.50
2023-01-12T13:51:25.288Z,0.60
2023-01-12T13:54:04.013Z,0.43
2023-01-12T13:56:31.814Z,0.57
2023-01-12T13:59:01.859Z,0.40
2023-01-12T14:01:38.417Z,0.50
2023-01-12T14:04:14.354Z,0.50
2023-01-12T14:06:50.354Z,0.47
2023-01-12T14:09:54.648Z,0.40
2023-01-12T14:12:45.851Z,0.80
2023-01-12T14:15:24.160Z,0.50
2023-01-12T14:17:51.325Z,0.70
2023-01-12T14:20:23.483Z,0.60
2023-01-12T14:23:05.428Z,0.60
2023-01-12T14:27:59.329Z,0.50
2023-01-12T14:30:27.409Z,0.47
2023-01-12T14:32:54.900Z,0.45
2023-01-12T14:35:24.994Z,0.40
2023-01-12T14:37:56.759Z,0.60
2023-01-12T14:42:53.253Z,0.40
2023-01-12T14:45:27.565Z,0.43
2023-01-12T14:47:54.739Z,0.60
2023-01-12T14:50:22.342Z,0.60
2023-01-12T14:52:49.546Z,0.57
2023-01-12T14:55:19.603Z,0.50
2023-01-12T14:57:59.589Z,0.63
2023-01-12T15:00:29.607Z,0.60
2023-01-12T15:02:58.837Z,0.60
2023-01-12T15:05:28.946Z,0.75
2023-01-12T15:08:03.643Z,0.73
2023-01-12T15:10:36.491Z,0.80
2023-01-12T15:13:32.672Z,1.40
2023-01-12T15:16:01.507Z,0.40
2023-01-12T15:18:28.574Z,1.40
2023-01-12T15:20:55.635Z,0.85
2023-01-12T15:23:34.340Z,0.40
2023-01-12T15:26:01.434Z,0.55
2023-01-12T15:28:28.542Z,0.90
2023-01-12T15:30:55.979Z,0.80
2023-01-12T15:33:23.039Z,0.80
2023-01-12T15:35:50.135Z,0.60
2023-01-12T15:38:18.215Z,0.70
2023-01-12T15:40:45.743Z,0.68
2023-01-12T15:43:14.852Z,1.60
2023-01-12T15:45:45.156Z,1.35
2023-01-12T15:48:12.492Z,0.70
2023-01-12T15:50:42.805Z,0.90
2023-01-12T15:53:21.324Z,0.70
2023-01-12T15:55:48.828Z,1.00
2023-01-12T15:58:16.413Z,1.25
2023-01-12T16:00:44.626Z,0.88
2023-01-12T16:03:28.923Z,1.00
2023-01-12T16:06:01.586Z,0.80
2023-01-12T16:08:28.605Z,0.70
2023-01-12T16:10:55.709Z,0.90
2023-01-12T16:13:22.834Z,0.55
2023-01-12T16:15:49.947Z,0.60
2023-01-12T16:18:17.245Z,1.42
2023-01-12T16:20:44.355Z,0.60
2023-01-12T16:23:11.514Z,0.73
2023-01-12T16:25:38.615Z,0.70
2023-01-12T16:28:05.796Z,1.48
2023-01-12T16:30:33.310Z,0.50
2023-01-12T16:33:00.736Z,0.55
2023-01-12T16:35:28.107Z,0.80
2023-01-12T16:37:55.155Z,0.52
2023-01-12T16:40:22.244Z,1.30
2023-01-12T16:42:49.280Z,2.10
2023-01-12T16:45:16.455Z,1.45
2023-01-12T16:47:43.540Z,1.15
2023-01-12T16:50:10.634Z,2.17
2023-01-12T16:52:37.663Z,1.38
2023-01-12T16:55:05.063Z,1.50
2023-01-12T16:57:32.208Z,1.08
2023-01-12T16:59:59.270Z,1.30
2023-01-12T17:02:26.537Z,1.00
2023-01-12T17:04:53.829Z,0.95
2023-01-12T17:07:22.235Z,1.13
2023-01-12T17:09:49.439Z,0.90
2023-01-12T17:12:16.887Z,1.10
2023-01-12T17:14:44.206Z,1.23
2023-01-12T17:17:11.780Z,1.27
2023-01-12T17:19:40.735Z,0.98
2023-01-12T17:22:08.407Z,0.65
2023-01-12T17:24:37.235Z,0.90
2023-01-12T17:27:04.485Z,1.30
2023-01-12T17:29:31.725Z,1.00
2023-01-12T17:31:59.018Z,1.02
2023-01-12T17:34:26.156Z,1.55
2023-01-12T17:36:53.408Z,0.63
2023-01-12T17:39:20.588Z,1.88
2023-01-12T17:41:47.821Z,0.60
2023-01-12T17:44:15.668Z,0.70
2023-01-12T17:46:43.310Z,2.78
2023-01-12T17:49:11.051Z,1.20
2023-01-12T17:51:38.753Z,1.00
2023-01-12T17:54:08.519Z,1.15
2023-01-12T17:56:35.694Z,1.85
2023-01-12T17:59:04.301Z,1.00
2023-01-12T18:01:33.995Z,1.40
2023-01-12T18:04:01.629Z,1.20
2023-01-12T18:06:29.031Z,1.40
2023-01-12T18:08:57.571Z,1.10
2023-01-12T18:11:25.016Z,1.60
2023-01-12T18:13:52.499Z,1.70
2023-01-12T18:16:20.777Z,2.13
2023-01-12T18:18:48.055Z,1.20
2023-01-12T18:21:18.475Z,1.17
2023-01-12T18:23:45.506Z,1.08
2023-01-12T18:26:15.318Z,2.60
2023-01-12T18:28:42.751Z,1.73
2023-01-12T18:31:12.982Z,0.93
2023-01-12T18:33:40.172Z,1.02
2023-01-12T18:36:12.427Z,1.55
2023-01-12T18:38:39.447Z,0.90
2023-01-12T18:41:06.600Z,0.98
2023-01-12T18:43:33.614Z,1.13
2023-01-12T18:46:11.183Z,1.45
2023-01-12T18:48:38.511Z,1.27
2023-01-12T18:51:05.650Z,1.05
2023-01-12T18:53:32.683Z,1.85
2023-01-12T18:56:02.813Z,1.00
2023-01-12T18:58:32.270Z,1.73
2023-01-12T19:01:01.863Z,1.00
2023-01-12T19:03:29.013Z,0.90
2023-01-12T19:05:56.163Z,1.10
2023-01-12T19:08:23.233Z,1.27
2023-01-12T19:10:50.276Z,1.40
2023-01-12T19:13:18.441Z,1.08
2023-01-12T19:15:45.625Z,0.73
2023-01-12T19:18:12.664Z,0.90
2023-01-12T19:20:39.710Z,0.80
2023-01-12T19:23:11.118Z,1.00
2023-01-12T19:25:38.225Z,0.70
2023-01-12T19:28:06.227Z,1.00
2023-01-12T19:30:33.514Z,1.70
2023-01-12T19:33:00.544Z,0.90
2023-01-12T19:35:27.582Z,1.00
2023-01-12T19:37:54.614Z,1.00
2023-01-12T19:40:21.729Z,0.70
2023-01-12T19:42:48.746Z,0.52
2023-01-12T19:45:16.046Z,1.20
2023-01-12T19:47:43.115Z,1.30
2023-01-12T19:50:12.167Z,1.40
2023-01-12T19:52:41.560Z,1.60
2023-01-12T19:55:11.672Z,1.05
2023-01-12T19:57:40.305Z,0.98
2023-01-12T20:00:12.089Z,1.00
2023-01-12T20:02:43.746Z,1.50
2023-01-12T20:05:13.465Z,0.88
2023-01-12T20:07:40.820Z,1.17
2023-01-12T20:10:08.578Z,1.73
2023-01-12T20:12:35.662Z,1.60
2023-01-12T20:15:02.775Z,1.15
2023-01-12T20:17:29.832Z,1.08
2023-01-12T20:19:56.895Z,1.30
2023-01-12T20:22:23.918Z,1.05
2023-01-12T20:24:51.036Z,1.25
2023-01-12T20:27:18.113Z,1.30
2023-01-12T20:29:45.160Z,1.50
2023-01-12T20:32:12.275Z,0.95
2023-01-12T20:34:40.306Z,0.95
2023-01-12T20:37:07.344Z,1.00
2023-01-12T20:39:34.622Z,1.23
2023-01-12T20:42:01.732Z,1.42
2023-01-12T20:44:28.851Z,1.33
2023-01-12T20:46:55.901Z,1.13
2023-01-12T20:49:24.247Z,1.33
2023-01-12T20:51:52.275Z,0.90
2023-01-12T20:54:19.596Z,1.30
2023-01-12T20:56:46.920Z,1.10
2023-01-12T20:59:13.995Z,0.88
2023-01-12T21:01:41.172Z,1.00
2023-01-12T21:04:08.585Z,1.00
2023-01-12T21:06:35.623Z,0.90
2023-01-12T21:09:02.796Z,0.90
2023-01-12T21:11:29.927Z,1.60
2023-01-12T21:13:57.071Z,1.00
2023-01-12T21:16:24.192Z,0.90
2023-01-12T21:18:52.417Z,0.80
2023-01-12T21:21:19.475Z,1.00
2023-01-12T21:23:46.506Z,1.55
2023-01-12T21:26:14.041Z,1.00
2023-01-12T21:28:41.147Z,0.85
2023-01-12T21:31:10.671Z,1.75
2023-01-12T21:33:38.032Z,1.23
2023-01-12T21:36:05.532Z,1.17
2023-01-12T21:38:33.016Z,1.00
2023-01-12T21:41:04.884Z,0.95
2023-01-12T21:43:33.132Z,1.20
2023-01-12T21:46:09.025Z,0.98
2023-01-12T21:48:36.779Z,1.30
2023-01-12T21:51:05.630Z,2.28
2023-01-12T21:53:32.851Z,1.13
2023-01-12T21:56:01.886Z,1.52
2023-01-12T21:58:31.144Z,1.45
2023-01-12T22:00:58.642Z,1.08
2023-01-12T22:03:27.119Z,2.20
2023-01-12T22:05:54.771Z,1.30
2023-01-12T22:08:21.870Z,1.23
2023-01-12T22:10:48.968Z,0.90
2023-01-12T22:13:17.333Z,0.73
2023-01-12T22:15:44.383Z,1.15
2023-01-12T22:18:11.426Z,1.33
2023-01-12T22:20:38.582Z,1.58
2023-01-12T22:23:05.672Z,1.30
2023-01-12T22:25:32.689Z,0.95
2023-01-12T22:27:59.800Z,1.30
2023-01-12T22:30:26.859Z,1.00
2023-01-12T22:32:55.204Z,1.08
2023-01-12T22:35:22.917Z,0.95
2023-01-12T22:37:50.003Z,1.17
2023-01-12T22:40:17.291Z,1.20
2023-01-12T22:42:44.424Z,0.90
2023-01-12T22:45:12.362Z,1.15
2023-01-12T22:47:47.902Z,1.10
2023-01-12T22:50:15.760Z,1.23
2023-01-12T22:52:42.793Z,1.13
2023-01-12T22:55:09.832Z,1.08
2023-01-12T22:57:36.848Z,1.27
2023-01-12T23:00:04.930Z,1.30
2023-01-12T23:02:32.255Z,1.17
2023-01-12T23:05:00.200Z,0.85
2023-01-12T23:07:27.353Z,1.10
2023-01-12T23:09:54.381Z,1.20
2023-01-12T23:12:21.516Z,1.17
2023-01-12T23:14:48.543Z,1.98
2023-01-12T23:17:15.703Z,1.00
2023-01-12T23:19:42.799Z,1.02
2023-01-12T23:22:09.826Z,1.08
2023-01-12T23:24:36.887Z,1.13
2023-01-12T23:27:04.390Z,0.98
2023-01-12T23:29:31.491Z,1.27
2023-01-12T23:31:58.483Z,0.80
2023-01-12T23:34:25.497Z,1.20
2023-01-12T23:36:52.503Z,0.95
2023-01-12T23:39:19.533Z,0.90
2023-01-12T23:41:46.543Z,0.90
2023-01-12T23:44:13.573Z,1.08
2023-01-12T23:46:40.943Z,1.02
2023-01-12T23:49:09.296Z,1.23
2023-01-12T23:51:36.338Z,0.82
2023-01-12T23:54:03.788Z,0.90
2023-01-12T23:56:32.838Z,0.80
2023-01-12T23:59:00.701Z,1.33
